sensor_id;sensor_type;location;lat;lon;timestamp;pressure;altitude;pressure_sealevel;temperature
45393;BMP280;31129;44.810;10.334;2022-12-29T00:02:12;101406.09;;;9.90
45393;BMP280;31129;44.810;10.334;2022-12-29T00:04:37;101383.28;;;9.96
45393;BMP280;31129;44.810;10.334;2022-12-29T00:07:03;101387.63;;;9.94
45393;BMP280;31129;44.810;10.334;2022-12-29T00:09:32;101376.97;;;10.00
45393;BMP280;31129;44.810;10.334;2022-12-29T00:11:59;101373.59;;;9.95
45393;BMP280;31129;44.810;10.334;2022-12-29T00:14:26;101371.91;;;10.11
45393;BMP280;31129;44.810;10.334;2022-12-29T00:17:11;101369.09;;;10.02
45393;BMP280;31129;44.810;10.334;2022-12-29T00:19:36;101365.81;;;9.94
45393;BMP280;31129;44.810;10.334;2022-12-29T00:22:20;101379.16;;;9.92
45393;BMP280;31129;44.810;10.334;2022-12-29T00:25:05;101365.47;;;9.83
45393;BMP280;31129;44.810;10.334;2022-12-29T00:27:51;101361.66;;;9.80
45393;BMP280;31129;44.810;10.334;2022-12-29T00:30:35;101358.06;;;9.83
45393;BMP280;31129;44.810;10.334;2022-12-29T00:33:28;101359.75;;;9.90
45393;BMP280;31129;44.810;10.334;2022-12-29T00:36:19;101352.03;;;9.88
45393;BMP280;31129;44.810;10.334;2022-12-29T00:38:49;101350.16;;;9.85
45393;BMP280;31129;44.810;10.334;2022-12-29T00:41:35;101341.88;;;9.89
45393;BMP280;31129;44.810;10.334;2022-12-29T00:44:19;101338.91;;;9.96
45393;BMP280;31129;44.810;10.334;2022-12-29T00:46:45;101343.84;;;9.88
45393;BMP280;31129;44.810;10.334;2022-12-29T00:49:12;101339.91;;;9.89
45393;BMP280;31129;44.810;10.334;2022-12-29T00:54:31;101355.94;;;9.87
45393;BMP280;31129;44.810;10.334;2022-12-29T00:56:57;101344.09;;;9.81
45393;BMP280;31129;44.810;10.334;2022-12-29T00:59:23;101335.34;;;9.86
45393;BMP280;31129;44.810;10.334;2022-12-29T01:01:50;101338.22;;;9.83
45393;BMP280;31129;44.810;10.334;2022-12-29T01:04:15;101337.97;;;9.77
45393;BMP280;31129;44.810;10.334;2022-12-29T01:06:43;101332.53;;;9.77
45393;BMP280;31129;44.810;10.334;2022-12-29T01:09:09;101334.06;;;9.78
45393;BMP280;31129;44.810;10.334;2022-12-29T01:11:54;101336.44;;;9.89
45393;BMP280;31129;44.810;10.334;2022-12-29T01:14:20;101331.31;;;9.91
45393;BMP280;31129;44.810;10.334;2022-12-29T01:16:46;101344.66;;;9.76
45393;BMP280;31129;44.810;10.334;2022-12-29T01:19:13;101327.75;;;9.81
45393;BMP280;31129;44.810;10.334;2022-12-29T01:21:39;101324.63;;;9.70
45393;BMP280;31129;44.810;10.334;2022-12-29T01:24:05;101337.00;;;9.84
45393;BMP280;31129;44.810;10.334;2022-12-29T01:26:30;101340.03;;;9.86
45393;BMP280;31129;44.810;10.334;2022-12-29T01:28:56;101349.63;;;9.90
45393;BMP280;31129;44.810;10.334;2022-12-29T01:31:22;101344.03;;;9.94
45393;BMP280;31129;44.810;10.334;2022-12-29T01:33:47;101349.28;;;9.88
45393;BMP280;31129;44.810;10.334;2022-12-29T01:36:14;101362.44;;;9.81
45393;BMP280;31129;44.810;10.334;2022-12-29T01:38:41;101351.00;;;9.73
45393;BMP280;31129;44.810;10.334;2022-12-29T01:41:08;101350.22;;;9.73
45393;BMP280;31129;44.810;10.334;2022-12-29T01:43:52;101356.22;;;9.80
45393;BMP280;31129;44.810;10.334;2022-12-29T01:49:19;101343.09;;;9.88
45393;BMP280;31129;44.810;10.334;2022-12-29T01:52:00;101352.28;;;9.81
45393;BMP280;31129;44.810;10.334;2022-12-29T01:54:40;101347.28;;;9.80
45393;BMP280;31129;44.810;10.334;2022-12-29T01:57:13;101353.28;;;9.75
45393;BMP280;31129;44.810;10.334;2022-12-29T01:59:47;101349.22;;;9.79
45393;BMP280;31129;44.810;10.334;2022-12-29T02:02:14;101352.91;;;9.85
45393;BMP280;31129;44.810;10.334;2022-12-29T02:04:43;101348.03;;;9.80
45393;BMP280;31129;44.810;10.334;2022-12-29T02:07:22;101343.44;;;9.77
45393;BMP280;31129;44.810;10.334;2022-12-29T02:09:51;101349.88;;;9.83
45393;BMP280;31129;44.810;10.334;2022-12-29T02:12:19;101347.81;;;9.75
45393;BMP280;31129;44.810;10.334;2022-12-29T02:14:46;101342.94;;;9.70
45393;BMP280;31129;44.810;10.334;2022-12-29T02:20:36;101329.38;;;9.79
45393;BMP280;31129;44.810;10.334;2022-12-29T02:28:50;101333.88;;;9.73
45393;BMP280;31129;44.810;10.334;2022-12-29T02:34:32;101316.78;;;9.72
45393;BMP280;31129;44.810;10.334;2022-12-29T02:43:13;101307.50;;;9.70
45393;BMP280;31129;44.810;10.334;2022-12-29T02:48:41;101304.34;;;9.71
45393;BMP280;31129;44.810;10.334;2022-12-29T02:51:33;101300.19;;;9.79
45393;BMP280;31129;44.810;10.334;2022-12-29T02:54:00;101298.38;;;9.85
45393;BMP280;31129;44.810;10.334;2022-12-29T02:56:49;101306.72;;;9.82
45393;BMP280;31129;44.810;10.334;2022-12-29T02:59:16;101309.47;;;9.69
45393;BMP280;31129;44.810;10.334;2022-12-29T03:02:01;101306.03;;;9.78
45393;BMP280;31129;44.810;10.334;2022-12-29T03:07:52;101292.56;;;9.74
45393;BMP280;31129;44.810;10.334;2022-12-29T03:10:37;101288.63;;;9.75
45393;BMP280;31129;44.810;10.334;2022-12-29T03:16:03;101292.88;;;9.76
45393;BMP280;31129;44.810;10.334;2022-12-29T03:19:00;101287.25;;;9.71
45393;BMP280;31129;44.810;10.334;2022-12-29T03:21:35;101277.97;;;9.68
45393;BMP280;31129;44.810;10.334;2022-12-29T03:24:27;101263.47;;;9.71
45393;BMP280;31129;44.810;10.334;2022-12-29T03:26:58;101273.16;;;9.72
45393;BMP280;31129;44.810;10.334;2022-12-29T03:29:27;101271.97;;;9.73
45393;BMP280;31129;44.810;10.334;2022-12-29T03:31:55;101270.00;;;9.74
45393;BMP280;31129;44.810;10.334;2022-12-29T03:34:24;101273.16;;;9.72
45393;BMP280;31129;44.810;10.334;2022-12-29T03:36:54;101275.91;;;9.72
45393;BMP280;31129;44.810;10.334;2022-12-29T03:39:22;101266.06;;;9.75
45393;BMP280;31129;44.810;10.334;2022-12-29T03:41:51;101262.19;;;9.63
45393;BMP280;31129;44.810;10.334;2022-12-29T03:44:31;101269.94;;;9.65
45393;BMP280;31129;44.810;10.334;2022-12-29T03:46:57;101271.97;;;9.73
45393;BMP280;31129;44.810;10.334;2022-12-29T03:49:22;101267.41;;;9.70
45393;BMP280;31129;44.810;10.334;2022-12-29T03:51:49;101265.03;;;9.59
45393;BMP280;31129;44.810;10.334;2022-12-29T03:54:15;101263.16;;;9.69
45393;BMP280;31129;44.810;10.334;2022-12-29T03:56:41;101267.63;;;9.63
45393;BMP280;31129;44.810;10.334;2022-12-29T03:59:07;101276.94;;;9.66
45393;BMP280;31129;44.810;10.334;2022-12-29T04:01:38;101266.88;;;9.62
45393;BMP280;31129;44.810;10.334;2022-12-29T04:04:03;101271.78;;;9.68
45393;BMP280;31129;44.810;10.334;2022-12-29T04:06:29;101273.00;;;9.67
45393;BMP280;31129;44.810;10.334;2022-12-29T04:09:02;101274.50;;;9.68
45393;BMP280;31129;44.810;10.334;2022-12-29T04:11:31;101268.41;;;9.63
45393;BMP280;31129;44.810;10.334;2022-12-29T04:13:57;101269.03;;;9.68
45393;BMP280;31129;44.810;10.334;2022-12-29T04:16:24;101275.06;;;9.62
45393;BMP280;31129;44.810;10.334;2022-12-29T04:18:50;101276.94;;;9.66
45393;BMP280;31129;44.810;10.334;2022-12-29T04:21:15;101284.19;;;9.69
45393;BMP280;31129;44.810;10.334;2022-12-29T04:23:42;101283.81;;;9.57
45393;BMP280;31129;44.810;10.334;2022-12-29T04:26:09;101298.56;;;9.69
45393;BMP280;31129;44.810;10.334;2022-12-29T04:28:42;101289.13;;;9.61
45393;BMP280;31129;44.810;10.334;2022-12-29T04:31:26;101285.94;;;9.62
45393;BMP280;31129;44.810;10.334;2022-12-29T04:33:52;101287.34;;;9.67
45393;BMP280;31129;44.810;10.334;2022-12-29T04:36:17;101288.88;;;9.68
45393;BMP280;31129;44.810;10.334;2022-12-29T04:38:43;101292.38;;;9.69
45393;BMP280;31129;44.810;10.334;2022-12-29T04:41:09;101289.63;;;9.69
45393;BMP280;31129;44.810;10.334;2022-12-29T04:43:40;101274.19;;;9.66
45393;BMP280;31129;44.810;10.334;2022-12-29T04:46:24;101279.94;;;9.68
45393;BMP280;31129;44.810;10.334;2022-12-29T04:48:58;101284.88;;;9.60
45393;BMP280;31129;44.810;10.334;2022-12-29T04:51:48;101285.94;;;9.62
45393;BMP280;31129;44.810;10.334;2022-12-29T04:54:15;101283.91;;;9.67
45393;BMP280;31129;44.810;10.334;2022-12-29T04:56:43;101272.84;;;9.70
45393;BMP280;31129;44.810;10.334;2022-12-29T04:59:09;101266.31;;;9.68
45393;BMP280;31129;44.810;10.334;2022-12-29T05:01:35;101273.72;;;9.67
45393;BMP280;31129;44.810;10.334;2022-12-29T05:04:00;101276.34;;;9.71
45393;BMP280;31129;44.810;10.334;2022-12-29T05:06:26;101285.63;;;9.60
45393;BMP280;31129;44.810;10.334;2022-12-29T05:08:52;101282.81;;;9.64
45393;BMP280;31129;44.810;10.334;2022-12-29T05:11:17;101280.19;;;9.60
45393;BMP280;31129;44.810;10.334;2022-12-29T05:13:45;101280.59;;;9.72
45393;BMP280;31129;44.810;10.334;2022-12-29T05:16:12;101283.63;;;9.74
45393;BMP280;31129;44.810;10.334;2022-12-29T05:18:37;101282.88;;;9.73
45393;BMP280;31129;44.810;10.334;2022-12-29T05:21:03;101284.63;;;9.67
45393;BMP280;31129;44.810;10.334;2022-12-29T05:23:29;101290.19;;;9.63
45393;BMP280;31129;44.810;10.334;2022-12-29T05:25:58;101289.03;;;9.65
45393;BMP280;31129;44.810;10.334;2022-12-29T05:28:32;101289.34;;;9.67
45393;BMP280;31129;44.810;10.334;2022-12-29T05:31:04;101295.53;;;9.67
45393;BMP280;31129;44.810;10.334;2022-12-29T05:33:30;101300.25;;;9.67
45393;BMP280;31129;44.810;10.334;2022-12-29T05:35:56;101297.28;;;9.61
45393;BMP280;31129;44.810;10.334;2022-12-29T05:38:22;101298.06;;;9.61
45393;BMP280;31129;44.810;10.334;2022-12-29T05:40:48;101296.78;;;9.53
45393;BMP280;31129;44.810;10.334;2022-12-29T05:43:32;101294.88;;;9.63
45393;BMP280;31129;44.810;10.334;2022-12-29T05:46:14;101307.06;;;9.71
45393;BMP280;31129;44.810;10.334;2022-12-29T05:48:46;101314.81;;;9.73
45393;BMP280;31129;44.810;10.334;2022-12-29T05:51:40;101310.44;;;9.75
45393;BMP280;31129;44.810;10.334;2022-12-29T05:54:06;101317.84;;;9.75
45393;BMP280;31129;44.810;10.334;2022-12-29T05:56:35;101312.63;;;9.68
45393;BMP280;31129;44.810;10.334;2022-12-29T05:59:01;101315.56;;;9.73
45393;BMP280;31129;44.810;10.334;2022-12-29T06:01:26;101317.41;;;9.76
45393;BMP280;31129;44.810;10.334;2022-12-29T06:03:53;101316.09;;;9.81
45393;BMP280;31129;44.810;10.334;2022-12-29T06:06:19;101306.75;;;9.69
45393;BMP280;31129;44.810;10.334;2022-12-29T06:08:45;101303.69;;;9.67
45393;BMP280;31129;44.810;10.334;2022-12-29T06:11:12;101307.06;;;9.71
45393;BMP280;31129;44.810;10.334;2022-12-29T06:13:40;101314.22;;;9.78
45393;BMP280;31129;44.810;10.334;2022-12-29T06:16:06;101322.53;;;9.74
45393;BMP280;31129;44.810;10.334;2022-12-29T06:18:32;101320.88;;;9.77
45393;BMP280;31129;44.810;10.334;2022-12-29T06:21:01;101321.63;;;9.77
45393;BMP280;31129;44.810;10.334;2022-12-29T06:23:27;101323.91;;;9.79
45393;BMP280;31129;44.810;10.334;2022-12-29T06:25:53;101323.16;;;9.78
45393;BMP280;31129;44.810;10.334;2022-12-29T06:28:18;101320.88;;;9.77
45393;BMP280;31129;44.810;10.334;2022-12-29T06:30:45;101313.59;;;9.74
45393;BMP280;31129;44.810;10.334;2022-12-29T06:33:14;101308.59;;;9.72
45393;BMP280;31129;44.810;10.334;2022-12-29T06:35:41;101307.03;;;9.84
45393;BMP280;31129;44.810;10.334;2022-12-29T06:38:07;101317.41;;;9.76
45393;BMP280;31129;44.810;10.334;2022-12-29T06:40:33;101322.41;;;9.78
45393;BMP280;31129;44.810;10.334;2022-12-29T06:43:10;101317.53;;;9.73
45393;BMP280;31129;44.810;10.334;2022-12-29T06:45:59;101316.13;;;9.68
45393;BMP280;31129;44.810;10.334;2022-12-29T06:48:25;101307.41;;;9.73
45393;BMP280;31129;44.810;10.334;2022-12-29T06:50:50;101303.03;;;9.76
45393;BMP280;31129;44.810;10.334;2022-12-29T06:53:15;101303.91;;;9.73
45393;BMP280;31129;44.810;10.334;2022-12-29T06:55:41;101302.38;;;9.72
45393;BMP280;31129;44.810;10.334;2022-12-29T06:58:07;101309.03;;;9.71
45393;BMP280;31129;44.810;10.334;2022-12-29T07:00:33;101301.63;;;9.71
45393;BMP280;31129;44.810;10.334;2022-12-29T07:02:58;101306.19;;;9.74
45393;BMP280;31129;44.810;10.334;2022-12-29T07:05:24;101306.94;;;9.75
45393;BMP280;31129;44.810;10.334;2022-12-29T07:07:52;101316.34;;;9.74
45393;BMP280;31129;44.810;10.334;2022-12-29T07:10:17;101313.28;;;9.72
45393;BMP280;31129;44.810;10.334;2022-12-29T07:12:43;101316.34;;;9.74
45393;BMP280;31129;44.810;10.334;2022-12-29T07:15:08;101326.78;;;9.75
45393;BMP280;31129;44.810;10.334;2022-12-29T07:17:34;101320.81;;;9.68
45393;BMP280;31129;44.810;10.334;2022-12-29T07:19:59;101312.63;;;9.68
45393;BMP280;31129;44.810;10.334;2022-12-29T07:22:25;101311.00;;;9.70
45393;BMP280;31129;44.810;10.334;2022-12-29T07:24:53;101312.09;;;9.73
45393;BMP280;31129;44.810;10.334;2022-12-29T07:27:18;101321.34;;;9.75
45393;BMP280;31129;44.810;10.334;2022-12-29T07:29:44;101323.75;;;9.73
45393;BMP280;31129;44.810;10.334;2022-12-29T07:32:10;101318.63;;;9.75
45393;BMP280;31129;44.810;10.334;2022-12-29T07:34:35;101321.63;;;9.77
45393;BMP280;31129;44.810;10.334;2022-12-29T07:37:04;101320.88;;;9.77
45393;BMP280;31129;44.810;10.334;2022-12-29T07:39:29;101321.53;;;9.81
45393;BMP280;31129;44.810;10.334;2022-12-29T07:41:55;101317.09;;;9.74
45393;BMP280;31129;44.810;10.334;2022-12-29T07:44:23;101324.28;;;9.81
45393;BMP280;31129;44.810;10.334;2022-12-29T07:46:52;101311.56;;;9.87
45393;BMP280;31129;44.810;10.334;2022-12-29T07:49:17;101318.88;;;9.90
45393;BMP280;31129;44.810;10.334;2022-12-29T07:51:43;101307.09;;;9.93
45393;BMP280;31129;44.810;10.334;2022-12-29T07:54:09;101318.19;;;9.98
45393;BMP280;31129;44.810;10.334;2022-12-29T07:56:37;101325.66;;;10.07
45393;BMP280;31129;44.810;10.334;2022-12-29T07:59:03;101324.91;;;10.07
45393;BMP280;31129;44.810;10.334;2022-12-29T08:01:29;101326.28;;;10.11
45393;BMP280;31129;44.810;10.334;2022-12-29T08:03:54;101348.56;;;10.10
45393;BMP280;31129;44.810;10.334;2022-12-29T08:06:20;101348.56;;;10.10
45393;BMP280;31129;44.810;10.334;2022-12-29T08:08:45;101340.69;;;10.12
45393;BMP280;31129;44.810;10.334;2022-12-29T08:11:11;101333.75;;;10.20
45393;BMP280;31129;44.810;10.334;2022-12-29T08:13:38;101345.06;;;10.09
45393;BMP280;31129;44.810;10.334;2022-12-29T08:16:03;101343.28;;;10.15
45393;BMP280;31129;44.810;10.334;2022-12-29T08:18:29;101346.25;;;10.08
45393;BMP280;31129;44.810;10.334;2022-12-29T08:20:54;101359.13;;;10.08
45393;BMP280;31129;44.810;10.334;2022-12-29T08:23:20;101352.56;;;10.18
45393;BMP280;31129;44.810;10.334;2022-12-29T08:25:45;101353.13;;;10.13
45393;BMP280;31129;44.810;10.334;2022-12-29T08:28:11;101362.06;;;10.13
45393;BMP280;31129;44.810;10.334;2022-12-29T08:30:36;101371.31;;;10.16
45393;BMP280;31129;44.810;10.334;2022-12-29T08:33:04;101366.63;;;10.16
45393;BMP280;31129;44.810;10.334;2022-12-29T08:35:30;101370.81;;;10.08
45393;BMP280;31129;44.810;10.334;2022-12-29T08:37:55;101375.84;;;10.10
45393;BMP280;31129;44.810;10.334;2022-12-29T08:40:21;101381.59;;;10.12
45393;BMP280;31129;44.810;10.334;2022-12-29T08:42:46;101379.69;;;10.00
45393;BMP280;31129;44.810;10.334;2022-12-29T08:45:12;101385.97;;;10.09
45393;BMP280;31129;44.810;10.334;2022-12-29T08:47:37;101389.66;;;10.15
45393;BMP280;31129;44.810;10.334;2022-12-29T08:50:03;101380.88;;;10.20
45393;BMP280;31129;44.810;10.334;2022-12-29T08:52:28;101381.16;;;10.13
45393;BMP280;31129;44.810;10.334;2022-12-29T08:54:54;101381.78;;;10.17
45393;BMP280;31129;44.810;10.334;2022-12-29T08:57:20;101389.88;;;10.08
45393;BMP280;31129;44.810;10.334;2022-12-29T09:00:01;101397.06;;;10.15
45393;BMP280;31129;44.810;10.334;2022-12-29T09:02:26;101397.13;;;10.24
45393;BMP280;31129;44.810;10.334;2022-12-29T09:04:51;101406.34;;;10.17
45393;BMP280;31129;44.810;10.334;2022-12-29T09:07:17;101396.03;;;10.21
45393;BMP280;31129;44.810;10.334;2022-12-29T09:09:42;101399.09;;;10.23
45393;BMP280;31129;44.810;10.334;2022-12-29T09:12:08;101386.56;;;10.26
45393;BMP280;31129;44.810;10.334;2022-12-29T09:14:33;101391.25;;;10.25
45393;BMP280;31129;44.810;10.334;2022-12-29T09:16:59;101379.44;;;10.28
45393;BMP280;31129;44.810;10.334;2022-12-29T09:19:43;101382.16;;;10.28
45393;BMP280;31129;44.810;10.334;2022-12-29T09:22:08;101397.97;;;10.33
45393;BMP280;31129;44.810;10.334;2022-12-29T09:24:34;101395.94;;;10.25
45393;BMP280;31129;44.810;10.334;2022-12-29T09:26:59;101403.97;;;10.28
45393;BMP280;31129;44.810;10.334;2022-12-29T09:29:25;101398.53;;;10.28
45393;BMP280;31129;44.810;10.334;2022-12-29T09:31:50;101401.91;;;10.32
45393;BMP280;31129;44.810;10.334;2022-12-29T09:34:16;101413.31;;;10.18
45393;BMP280;31129;44.810;10.334;2022-12-29T09:36:41;101405.22;;;10.27
45393;BMP280;31129;44.810;10.334;2022-12-29T09:39:07;101400.50;;;10.28
45393;BMP280;31129;44.810;10.334;2022-12-29T09:41:42;101412.31;;;10.25
45393;BMP280;31129;44.810;10.334;2022-12-29T09:46:44;101409.94;;;10.36
45393;BMP280;31129;44.810;10.334;2022-12-29T09:49:40;101409.00;;;10.30
45393;BMP280;31129;44.810;10.334;2022-12-29T09:52:14;101403.75;;;10.36
45393;BMP280;31129;44.810;10.334;2022-12-29T09:54:48;101413.47;;;10.24
45393;BMP280;31129;44.810;10.334;2022-12-29T09:57:23;101404.31;;;10.30
45393;BMP280;31129;44.810;10.334;2022-12-29T09:59:52;101399.94;;;10.33
45393;BMP280;31129;44.810;10.334;2022-12-29T10:02:41;101408.44;;;10.35
45393;BMP280;31129;44.810;10.334;2022-12-29T10:10:56;101392.13;;;10.44
45393;BMP280;31129;44.810;10.334;2022-12-29T10:13:37;101385.94;;;10.53
45393;BMP280;31129;44.810;10.334;2022-12-29T10:16:26;101390.34;;;10.50
45393;BMP280;31129;44.810;10.334;2022-12-29T10:19:11;101371.25;;;10.50
45393;BMP280;31129;44.810;10.334;2022-12-29T10:24:28;101344.03;;;10.68
45393;BMP280;31129;44.810;10.334;2022-12-29T10:26:56;101346.50;;;10.76
45393;BMP280;31129;44.810;10.334;2022-12-29T10:29:27;101360.91;;;10.76
45393;BMP280;31129;44.810;10.334;2022-12-29T10:32:22;101373.19;;;10.72
45393;BMP280;31129;44.810;10.334;2022-12-29T10:34:51;101361.19;;;10.69
45393;BMP280;31129;44.810;10.334;2022-12-29T10:37:34;101352.19;;;10.59
45393;BMP280;31129;44.810;10.334;2022-12-29T10:40:15;101350.25;;;10.69
45393;BMP280;31129;44.810;10.334;2022-12-29T10:42:47;101340.81;;;10.61
45393;BMP280;31129;44.810;10.334;2022-12-29T10:45:17;101337.13;;;10.55
45393;BMP280;31129;44.810;10.334;2022-12-29T10:48:11;101343.03;;;10.53
45393;BMP280;31129;44.810;10.334;2022-12-29T10:50:41;101343.69;;;10.57
45393;BMP280;31129;44.810;10.334;2022-12-29T10:53:15;101340.97;;;10.57
45393;BMP280;31129;44.810;10.334;2022-12-29T10:55:44;101336.72;;;10.56
45393;BMP280;31129;44.810;10.334;2022-12-29T10:58:12;101360.16;;;10.54
45393;BMP280;31129;44.810;10.334;2022-12-29T11:00:38;101352.50;;;10.61
45393;BMP280;31129;44.810;10.334;2022-12-29T11:03:33;101338.34;;;10.54
45393;BMP280;31129;44.810;10.334;2022-12-29T11:06:13;101340.06;;;10.60
45393;BMP280;31129;44.810;10.334;2022-12-29T11:09:02;101331.72;;;10.64
45393;BMP280;31129;44.810;10.334;2022-12-29T11:11:35;101331.88;;;10.69
45393;BMP280;31129;44.810;10.334;2022-12-29T11:14:25;101328.44;;;10.78
45393;BMP280;31129;44.810;10.334;2022-12-29T11:17:00;101328.31;;;10.82
45393;BMP280;31129;44.810;10.334;2022-12-29T11:19:28;101328.75;;;10.80
45393;BMP280;31129;44.810;10.334;2022-12-29T11:22:13;101321.19;;;10.75
45393;BMP280;31129;44.810;10.334;2022-12-29T11:24:45;101311.47;;;10.74
45393;BMP280;31129;44.810;10.334;2022-12-29T11:29:42;101309.22;;;10.82
45393;BMP280;31129;44.810;10.334;2022-12-29T11:32:25;101302.53;;;10.83
45393;BMP280;31129;44.810;10.334;2022-12-29T11:34:54;101291.75;;;10.79
45393;BMP280;31129;44.810;10.334;2022-12-29T11:37:29;101291.91;;;10.76
45393;BMP280;31129;44.810;10.334;2022-12-29T11:40:05;101293.06;;;10.56
45393;BMP280;31129;44.810;10.334;2022-12-29T11:42:52;101287.34;;;10.73
45393;BMP280;31129;44.810;10.334;2022-12-29T11:47:57;101286.03;;;10.86
45393;BMP280;31129;44.810;10.334;2022-12-29T11:50:27;101294.34;;;10.83
45393;BMP280;31129;44.810;10.334;2022-12-29T11:52:59;101294.47;;;10.79
45393;BMP280;31129;44.810;10.334;2022-12-29T11:55:27;101290.72;;;10.77
45393;BMP280;31129;44.810;10.334;2022-12-29T11:57:55;101279.44;;;10.65
45393;BMP280;31129;44.810;10.334;2022-12-29T12:00:24;101277.97;;;10.74
45393;BMP280;31129;44.810;10.334;2022-12-29T12:05:47;101273.09;;;10.78
45393;BMP280;31129;44.810;10.334;2022-12-29T12:08:20;101272.19;;;10.72
45393;BMP280;31129;44.810;10.334;2022-12-29T12:16:21;101264.59;;;10.66
45393;BMP280;31129;44.810;10.334;2022-12-29T12:18:53;101286.06;;;10.55
45393;BMP280;31129;44.810;10.334;2022-12-29T12:21:31;101287.16;;;10.58
45393;BMP280;31129;44.810;10.334;2022-12-29T12:29:56;101254.56;;;10.63
45393;BMP280;31129;44.810;10.334;2022-12-29T12:32:29;101247.59;;;10.62
45393;BMP280;31129;44.810;10.334;2022-12-29T12:35:03;101256.53;;;10.63
45393;BMP280;31129;44.810;10.334;2022-12-29T12:40:29;101257.25;;;10.54
45393;BMP280;31129;44.810;10.334;2022-12-29T12:46:06;101244.91;;;10.72
45393;BMP280;31129;44.810;10.334;2022-12-29T12:59:36;101236.19;;;10.55
45393;BMP280;31129;44.810;10.334;2022-12-29T13:02:40;101250.47;;;10.59
45393;BMP280;31129;44.810;10.334;2022-12-29T13:05:30;101258.25;;;10.39
45393;BMP280;31129;44.810;10.334;2022-12-29T13:24:06;101209.63;;;10.46
45393;BMP280;31129;44.810;10.334;2022-12-29T13:26:36;101203.88;;;10.53
45393;BMP280;31129;44.810;10.334;2022-12-29T13:32:00;101187.81;;;10.46
45393;BMP280;31129;44.810;10.334;2022-12-29T13:37:02;101189.94;;;10.42
45393;BMP280;31129;44.810;10.334;2022-12-29T13:39:39;101199.16;;;10.45
45393;BMP280;31129;44.810;10.334;2022-12-29T13:42:07;101204.94;;;10.47
45393;BMP280;31129;44.810;10.334;2022-12-29T13:44:40;101200.41;;;10.44
45393;BMP280;31129;44.810;10.334;2022-12-29T13:49:41;101209.50;;;10.41
45393;BMP280;31129;44.810;10.334;2022-12-29T14:00:14;101203.16;;;10.62
45393;BMP280;31129;44.810;10.334;2022-12-29T14:05:32;101207.09;;;10.61
45393;BMP280;31129;44.810;10.334;2022-12-29T14:08:00;101213.16;;;10.56
45393;BMP280;31129;44.810;10.334;2022-12-29T14:15:38;101195.41;;;10.51
45393;BMP280;31129;44.810;10.334;2022-12-29T14:18:19;101209.50;;;10.50
45393;BMP280;31129;44.810;10.334;2022-12-29T14:20:59;101196.63;;;10.50
45393;BMP280;31129;44.810;10.334;2022-12-29T14:28:31;101192.69;;;10.69
45393;BMP280;31129;44.810;10.334;2022-12-29T14:31:01;101181.19;;;10.65
45393;BMP280;31129;44.810;10.334;2022-12-29T14:33:29;101191.50;;;10.71
45393;BMP280;31129;44.810;10.334;2022-12-29T14:35:56;101194.88;;;10.75
45393;BMP280;31129;44.810;10.334;2022-12-29T14:38:24;101181.78;;;10.69
45393;BMP280;31129;44.810;10.334;2022-12-29T14:40:50;101188.34;;;10.72
45393;BMP280;31129;44.810;10.334;2022-12-29T14:43:25;101179.06;;;10.69
45393;BMP280;31129;44.810;10.334;2022-12-29T14:45:59;101182.41;;;10.64
45393;BMP280;31129;44.810;10.334;2022-12-29T14:48:33;101188.63;;;10.65
45393;BMP280;31129;44.810;10.334;2022-12-29T14:51:00;101184.22;;;10.67
45393;BMP280;31129;44.810;10.334;2022-12-29T14:53:46;101185.00;;;10.68
45393;BMP280;31129;44.810;10.334;2022-12-29T14:56:13;101173.59;;;10.69
45393;BMP280;31129;44.810;10.334;2022-12-29T14:58:47;101166.94;;;10.71
45393;BMP280;31129;44.810;10.334;2022-12-29T15:01:20;101162.22;;;10.62
45393;BMP280;31129;44.810;10.334;2022-12-29T15:03:54;101164.69;;;10.60
45393;BMP280;31129;44.810;10.334;2022-12-29T15:06:22;101161.78;;;10.63
45393;BMP280;31129;44.810;10.334;2022-12-29T15:09:09;101147.53;;;10.59
45393;BMP280;31129;44.810;10.334;2022-12-29T15:14:51;101157.84;;;10.64
45393;BMP280;31129;44.810;10.334;2022-12-29T15:17:33;101161.19;;;10.59
45393;BMP280;31129;44.810;10.334;2022-12-29T15:20:00;101159.78;;;10.55
45393;BMP280;31129;44.810;10.334;2022-12-29T15:22:27;101160.13;;;10.57
45393;BMP280;31129;44.810;10.334;2022-12-29T15:24:54;101156.19;;;10.58
45393;BMP280;31129;44.810;10.334;2022-12-29T15:27:24;101155.09;;;10.55
45393;BMP280;31129;44.810;10.334;2022-12-29T15:29:59;101160.72;;;10.70
45393;BMP280;31129;44.810;10.334;2022-12-29T15:32:29;101149.22;;;10.66
45393;BMP280;31129;44.810;10.334;2022-12-29T15:34:56;101141.03;;;10.57
45393;BMP280;31129;44.810;10.334;2022-12-29T15:37:26;101160.53;;;10.55
45393;BMP280;31129;44.810;10.334;2022-12-29T15:39:55;101151.00;;;10.51
45393;BMP280;31129;44.810;10.334;2022-12-29T15:44:57;101129.19;;;10.51
45393;BMP280;31129;44.810;10.334;2022-12-29T15:47:29;101127.69;;;10.59
45393;BMP280;31129;44.810;10.334;2022-12-29T15:50:21;101139.50;;;10.56
45393;BMP280;31129;44.810;10.334;2022-12-29T15:52:48;101133.88;;;10.50
45393;BMP280;31129;44.810;10.334;2022-12-29T15:55:20;101136.44;;;10.54
45393;BMP280;31129;44.810;10.334;2022-12-29T15:57:46;101124.31;;;10.46
45393;BMP280;31129;44.810;10.334;2022-12-29T16:00:37;101115.38;;;10.45
45393;BMP280;31129;44.810;10.334;2022-12-29T16:03:05;101117.66;;;10.47
45393;BMP280;31129;44.810;10.334;2022-12-29T16:05:36;101105.22;;;10.46
45393;BMP280;31129;44.810;10.334;2022-12-29T16:08:15;101110.06;;;10.51
45393;BMP280;31129;44.810;10.334;2022-12-29T16:10:45;101113.56;;;10.51
45393;BMP280;31129;44.810;10.334;2022-12-29T16:13:29;101119.63;;;10.46
45393;BMP280;31129;44.810;10.334;2022-12-29T16:15:59;101109.91;;;10.54
45393;BMP280;31129;44.810;10.334;2022-12-29T16:18:29;101119.63;;;10.46
45393;BMP280;31129;44.810;10.334;2022-12-29T16:20:56;101115.84;;;10.44
45393;BMP280;31129;44.810;10.334;2022-12-29T16:23:24;101113.41;;;10.46
45393;BMP280;31129;44.810;10.334;2022-12-29T16:25:51;101118.41;;;10.47